Bookmark and Share
Track history (hours):
 

Iron Lady

More information available from US FCC via Universal Licensing System and Coast Guard Vessel Documentation Center.

Last reported at 2014-Apr-20 02:33 UTC. Time now 2014-Apr-20 03:12 UTC.
Position N 46°10' W 123°55'.

Type: Fishing. MMSI: 367037240.

NotesDate/timePositionNaut miles runAvg speedWind from/ knotsBaromVisibWave heightAir tempDewpointWater temp
2014-Apr-20 02:33N 46°10' W 123°55'0 0.0
2014-Apr-20 01:33N 46°10' W 123°55'0 0.0
2014-Apr-20 00:33N 46°10' W 123°55'0 0.0
2014-Apr-19 23:33N 46°10' W 123°55'0 0.0
2014-Apr-19 22:33N 46°10' W 123°55'0 0.0
2014-Apr-19 21:33N 46°10' W 123°55'0 0.0
2014-Apr-19 20:33N 46°10' W 123°55'0 0.0
2014-Apr-19 19:33N 46°10' W 123°55'0 0.0
2014-Apr-19 18:33N 46°10' W 123°55'0 0.0
2014-Apr-19 17:33N 46°10' W 123°55'0 0.0
2014-Apr-19 16:33N 46°10' W 123°55'0 0.0
2014-Apr-19 15:33N 46°10' W 123°55'0 0.0
2014-Apr-19 14:33N 46°10' W 123°55'0 0.0
2014-Apr-19 13:33N 46°10' W 123°55'0 0.0
2014-Apr-19 12:33N 46°10' W 123°55'0 0.0
2014-Apr-19 11:33N 46°10' W 123°55'0 0.0
2014-Apr-19 10:33N 46°10' W 123°55'0 0.0
2014-Apr-19 09:33N 46°10' W 123°55'0 0.0
2014-Apr-19 08:33N 46°10' W 123°55'0 0.0
2014-Apr-19 07:33N 46°10' W 123°55'0 0.0
2014-Apr-19 06:33N 46°10' W 123°55'0 0.0
2014-Apr-19 05:33N 46°10' W 123°55'0 0.0
2014-Apr-19 04:33N 46°10' W 123°55'0 0.0
2014-Apr-19 03:34N 46°10' W 123°55'0 0.0
2014-Apr-19 02:33N 46°10' W 123°55'0 0.0
2014-Apr-19 01:33N 46°10' W 123°55'0 0.0
2014-Apr-19 00:33N 46°10' W 123°55'0 0.0
2014-Apr-18 23:34N 46°10' W 123°55'0 0.0
2014-Apr-18 22:33N 46°10' W 123°55'0 0.0
2014-Apr-18 21:33N 46°10' W 123°55'0 0.0
2014-Apr-18 20:34N 46°10' W 123°55'3 3.5
2014-Apr-18 19:33N 46°12' W 123°50'1 0.9
2014-Apr-18 18:34N 46°11' W 123°51'0 0.0
2014-Apr-18 17:33N 46°11' W 123°51'0 0.0
2014-Apr-18 16:34N 46°11' W 123°51'0 0.0
2014-Apr-18 15:33N 46°11' W 123°51'0 0.0
2014-Apr-18 14:33N 46°11' W 123°51'0 0.0
2014-Apr-18 13:33N 46°11' W 123°51'0 0.0
2014-Apr-18 12:33N 46°11' W 123°51'3 2.6
2014-Apr-18 11:34N 46°10' W 123°55'0 0.0
2014-Apr-18 10:33N 46°10' W 123°55'0 0.0
2014-Apr-18 09:33N 46°10' W 123°55'0 0.0
2014-Apr-18 08:33N 46°10' W 123°55'0 0.0
2014-Apr-18 07:33N 46°10' W 123°55'0 0.0
2014-Apr-18 06:33N 46°10' W 123°55'0 0.0
2014-Apr-18 05:34N 46°10' W 123°55'0 0.0
2014-Apr-18 04:33N 46°10' W 123°55'0 0.0
2014-Apr-18 03:33N 46°10' W 123°55'0 0.0
2014-Apr-18 02:33N 46°10' W 123°55'0 0.0
2014-Apr-18 01:33N 46°10' W 123°55'0 0.0
2014-Apr-18 00:33N 46°10' W 123°55'0 0.0
2014-Apr-17 23:33N 46°10' W 123°55'0 0.0
2014-Apr-17 22:34N 46°10' W 123°55'0 0.0
2014-Apr-17 21:34N 46°10' W 123°55'0 0.0
2014-Apr-17 20:33N 46°10' W 123°55'0 0.0
2014-Apr-17 19:33N 46°10' W 123°55'0 0.0
2014-Apr-17 18:33N 46°10' W 123°55'0 0.0
2014-Apr-17 17:33N 46°10' W 123°55'0 0.0
2014-Apr-17 16:33N 46°10' W 123°55'0 0.0
2014-Apr-17 15:33N 46°10' W 123°55'0 0.0
2014-Apr-17 14:33N 46°10' W 123°55'0 0.0
2014-Apr-17 13:33N 46°10' W 123°55'0 0.0
2014-Apr-17 12:33N 46°10' W 123°55'0 0.0
2014-Apr-17 11:33N 46°10' W 123°55'0 0.0
2014-Apr-17 10:33N 46°10' W 123°55'0 0.0
2014-Apr-17 09:33N 46°10' W 123°55'0 0.0
2014-Apr-17 08:30N 46°10' W 123°55'0 0.0
2014-Apr-17 07:33N 46°10' W 123°55'0 0.0
2014-Apr-17 06:33N 46°10' W 123°55'0 0.0
2014-Apr-17 05:33N 46°10' W 123°55'0 0.0
2014-Apr-17 04:34N 46°10' W 123°55'0 0.0
2014-Apr-17 03:33N 46°10' W 123°55'0 0.0
2014-Apr-17 02:33N 46°10' W 123°55'0 0.0
2014-Apr-17 01:33N 46°10' W 123°55'2 1.5
2014-Apr-17 00:33N 46°11' W 123°53'2 2.1
2014-Apr-16 23:33N 46°12' W 123°56'7 6.9
2014-Apr-16 22:33N 46°15' W 124°05'7 7.0
2014-Apr-16 21:33N 46°20' W 124°13'8 7.9
2014-Apr-16 20:33N 46°25' W 124°22'8 8.2
2014-Apr-16 19:33N 46°30' W 124°30'  
2014-Apr-13 04:33N 46°10' W 123°55'0 0.0
2014-Apr-13 03:33N 46°10' W 123°55'0 0.0
2014-Apr-13 02:33N 46°10' W 123°55'0 0.0
2014-Apr-13 01:33N 46°10' W 123°55'0 0.0
2014-Apr-13 00:33N 46°10' W 123°55'0 0.0
2014-Apr-12 23:33N 46°10' W 123°55'0 0.0
2014-Apr-12 22:33N 46°10' W 123°55'0 0.0
2014-Apr-12 02:33N 46°10' W 123°55'0 0.0
2014-Apr-12 01:32N 46°10' W 123°55'0 0.0
2014-Apr-12 00:33N 46°10' W 123°55'0 0.0
2014-Apr-11 23:33N 46°10' W 123°55'0 0.0
2014-Apr-11 22:33N 46°10' W 123°55'0 0.0
2014-Apr-11 21:33N 46°10' W 123°55'0 0.0
2014-Apr-11 20:33N 46°10' W 123°55'0 0.0
2014-Apr-11 19:33N 46°10' W 123°55'  

Dump ship's entire track history

sailing weather and tide predictions

Iron Lady — WTK5059 — position and weather